Time;durP1;ratioP1;P1;durP2;ratioP2;P2;SDS_P1;SDS_P2;PMS_P1;PMS_P2;Temp;Humidity;BMP_temperature;BMP_pressure;BME280_temperature;BME280_humidity;BME280_pressure;Samples;Min_cycle;Max_cycle;Signal;HPM_P1;HPM_P2
2023/06/24 00:00:15;;;;;;;6.20;4.53;;;;;;;15.30;73.25;96982.28;2106603;28;20058;-56
2023/06/24 00:01:20;;;;;;;6.95;4.82;;;;;;;15.29;74.68;96971.88;2107282;28;20039;-56
2023/06/24 00:02:23;;;;;;;8.25;4.97;;;;;;;15.26;74.54;96978.09;2106728;28;20055;-56
2023/06/24 00:03:25;;;;;;;7.05;4.80;;;;;;;15.18;74.73;96962.81;2106355;28;20107;-55
2023/06/24 00:04:26;;;;;;;6.38;4.95;;;;;;;15.28;74.00;96970.19;2106064;28;20048;-55
2023/06/24 00:05:27;;;;;;;7.15;4.57;;;;;;;15.28;74.61;96968.41;2106062;28;20060;-55
2023/06/24 00:06:28;;;;;;;7.25;4.55;;;;;;;15.17;74.71;96955.03;2114998;28;20452;-55
2023/06/24 00:07:29;;;;;;;6.32;4.47;;;;;;;15.26;74.59;96974.66;2115812;28;20387;-55
2023/06/24 00:08:36;;;;;;;7.43;5.30;;;;;;;15.25;74.99;96980.81;2115601;28;20048;-55
2023/06/24 00:09:38;;;;;;;5.80;4.80;;;;;;;15.25;74.85;96975.59;2115735;28;20046;-55
2023/06/24 00:10:39;;;;;;;6.45;4.25;;;;;;;15.22;75.64;96972.19;2115561;28;20051;-55
2023/06/24 00:11:40;;;;;;;7.00;5.20;;;;;;;15.21;75.34;96965.28;2115599;28;20051;-55
2023/06/24 00:12:41;;;;;;;8.45;5.75;;;;;;;15.26;75.68;96972.03;2115532;28;20415;-55
2023/06/24 00:13:43;;;;;;;7.20;5.22;;;;;;;15.25;75.22;96971.19;2098507;28;20059;-56
2023/06/24 00:14:45;;;;;;;7.38;5.22;;;;;;;15.15;75.83;96952.47;2097805;28;20049;-56
2023/06/24 00:15:46;;;;;;;6.57;4.78;;;;;;;15.24;75.36;96971.28;2105646;28;20495;-56
2023/06/24 00:16:51;;;;;;;7.55;5.20;;;;;;;15.21;75.74;96961.81;2105736;28;20051;-56
2023/06/24 00:17:52;;;;;;;6.72;5.00;;;;;;;15.24;76.45;96969.50;2115804;28;20051;-56
2023/06/24 00:19:00;;;;;;;7.00;5.20;;;;;;;15.24;76.91;96966.06;2114529;28;20489;-55
2023/06/24 00:20:03;;;;;;;7.22;5.00;;;;;;;15.05;77.60;96945.16;2115582;28;20072;-55
2023/06/24 00:21:04;;;;;;;8.15;4.70;;;;;;;15.17;77.55;96974.19;2115660;28;20044;-55
2023/06/24 00:22:06;;;;;;;8.70;5.40;;;;;;;15.10;77.15;96967.59;2115745;28;20048;-56
2023/06/24 00:23:07;;;;;;;7.60;4.80;;;;;;;15.23;76.44;96975.66;2105542;28;20071;-56
2023/06/24 00:24:09;;;;;;;7.07;5.15;;;;;;;15.21;76.84;96975.75;2105872;28;20103;-55
2023/06/24 00:25:10;;;;;;;6.78;5.28;;;;;;;15.18;76.52;96970.66;2115617;28;20050;-57
2023/06/24 00:26:11;;;;;;;5.88;4.50;;;;;;;15.24;76.41;96976.53;2114875;28;20064;-57
2023/06/24 00:27:12;;;;;;;6.95;5.20;;;;;;;15.19;76.94;96966.28;2114917;28;20043;-54
2023/06/24 00:28:13;;;;;;;6.13;4.55;;;;;;;15.21;76.56;96970.50;2114935;28;20050;-57
2023/06/24 00:29:17;;;;;;;7.57;5.00;;;;;;;15.18;76.42;96965.44;2115506;28;20043;-55
2023/06/24 00:30:18;;;;;;;7.03;4.88;;;;;;;15.20;76.78;96968.78;2105719;28;20056;-56
2023/06/24 00:31:19;;;;;;;6.63;5.13;;;;;;;15.20;77.01;96967.97;2098262;28;20063;-55
2023/06/24 00:32:21;;;;;;;6.88;5.15;;;;;;;15.13;76.81;96958.72;2106751;28;20040;-55
2023/06/24 00:33:22;;;;;;;7.72;5.03;;;;;;;15.20;76.74;96975.81;2115395;28;20044;-55
2023/06/24 00:34:23;;;;;;;6.40;4.97;;;;;;;15.16;77.19;96971.66;2105734;28;20048;-55
2023/06/24 00:35:26;;;;;;;8.50;5.45;;;;;;;15.20;76.58;96974.03;2097599;28;20060;-55
2023/06/24 00:36:27;;;;;;;8.07;5.10;;;;;;;15.21;76.44;96977.50;2105793;28;20051;-55
2023/06/24 00:37:28;;;;;;;7.25;4.88;;;;;;;15.22;76.65;96971.34;2106032;28;20395;-55
2023/06/24 00:38:32;;;;;;;8.10;5.50;;;;;;;15.22;76.98;96974.81;2097524;28;20048;-55
2023/06/24 00:39:33;;;;;;;5.97;4.70;;;;;;;15.25;76.68;96967.72;2106184;28;20052;-55
2023/06/24 00:40:34;;;;;;;7.82;5.40;;;;;;;15.25;76.43;96965.97;2114246;28;20147;-55
2023/06/24 00:41:35;;;;;;;7.40;5.30;;;;;;;15.16;77.00;96955.97;2105019;28;20444;-55
2023/06/24 00:42:37;;;;;;;6.15;4.97;;;;;;;15.26;76.78;96970.25;2106062;28;20047;-57
2023/06/24 00:43:39;;;;;;;8.15;4.63;;;;;;;15.28;76.77;96971.03;2097629;28;20053;-56
2023/06/24 00:44:40;;;;;;;7.10;5.07;;;;;;;15.29;76.55;96969.25;2098126;28;20048;-56
2023/06/24 00:45:41;;;;;;;8.77;4.85;;;;;;;15.30;76.76;96970.97;2114668;28;20394;-56
2023/06/24 00:46:42;;;;;;;7.88;5.22;;;;;;;15.29;76.41;96971.88;2106092;28;20048;-57
2023/06/24 00:47:45;;;;;;;6.68;4.85;;;;;;;15.29;76.22;96975.34;2098322;28;20066;-57
2023/06/24 00:48:46;;;;;;;6.40;4.95;;;;;;;15.32;76.11;96969.97;2098171;28;20450;-57
2023/06/24 00:49:47;;;;;;;7.57;4.78;;;;;;;15.33;76.18;96973.44;2106761;28;20040;-55
2023/06/24 00:50:49;;;;;;;8.68;4.97;;;;;;;15.22;76.83;96951.25;2098195;28;20146;-57
2023/06/24 00:51:50;;;;;;;6.07;4.40;;;;;;;15.34;76.96;96978.59;2097950;28;20036;-55
2023/06/24 00:52:52;;;;;;;6.85;5.05;;;;;;;15.28;77.01;96967.56;2114629;28;20055;-55
2023/06/24 00:53:53;;;;;;;8.45;5.25;;;;;;;15.30;76.41;96968.34;2114579;28;20493;-57
2023/06/24 00:54:55;;;;;;;7.35;5.50;;;;;;;15.32;75.98;96977.81;2114501;28;20047;-57
2023/06/24 00:56:01;;;;;;;7.45;5.38;;;;;;;15.28;76.72;96970.19;2106260;28;20511;-57
2023/06/24 00:57:03;;;;;;;8.30;5.38;;;;;;;15.28;77.39;96975.41;2081815;28;20432;-57
2023/06/24 00:58:04;;;;;;;6.90;4.60;;;;;;;15.27;77.37;96982.44;2090496;28;20456;-56
2023/06/24 00:59:05;;;;;;;6.88;5.03;;;;;;;15.12;76.79;96955.25;2105800;28;20059;-56
2023/06/24 01:00:14;;;;;;;8.38;5.25;;;;;;;15.17;77.53;96974.19;2097930;28;20048;-57
2023/06/24 01:01:15;;;;;;;7.75;5.43;;;;;;;15.13;78.46;96972.66;2107536;28;20051;-56
2023/06/24 01:02:16;;;;;;;8.18;5.70;;;;;;;15.09;78.49;96978.97;2106208;28;20066;-57
2023/06/24 01:03:17;;;;;;;9.13;5.47;;;;;;;15.09;78.38;96976.34;2106148;28;20059;-56
2023/06/24 01:04:19;;;;;;;7.43;5.30;;;;;;;15.06;78.44;96976.50;2105415;28;20514;-57
2023/06/24 01:05:23;;;;;;;7.93;5.25;;;;;;;15.06;78.44;96973.03;2097360;28;20067;-57
2023/06/24 01:06:28;;;;;;;7.18;5.70;;;;;;;15.04;78.56;96978.34;2097414;28;20051;-57
2023/06/24 01:07:30;;;;;;;6.93;5.07;;;;;;;15.03;78.97;96975.81;2098244;28;20144;-57
2023/06/24 01:08:31;;;;;;;8.15;5.20;;;;;;;15.02;79.09;96974.09;2089963;28;20420;-57
2023/06/24 01:09:32;;;;;;;7.45;5.78;;;;;;;15.03;79.70;96975.81;2089527;28;20064;-56
2023/06/24 01:10:33;;;;;;;7.32;5.93;;;;;;;15.02;79.15;96976.72;2105940;28;20411;-57
2023/06/24 01:11:35;;;;;;;7.07;5.25;;;;;;;15.00;79.31;96971.56;2106440;28;20052;-56
2023/06/24 01:12:38;;;;;;;10.05;6.07;;;;;;;14.84;79.64;96942.72;2105802;28;20143;-56
2023/06/24 01:13:39;;;;;;;8.25;5.43;;;;;;;15.02;79.36;96976.72;2106310;28;20044;-56
2023/06/24 01:14:41;;;;;;;8.27;5.70;;;;;;;15.01;79.87;96978.50;2106301;28;20044;-56
2023/06/24 01:15:43;;;;;;;7.88;5.80;;;;;;;15.01;80.52;96973.25;2081064;28;20052;-57
2023/06/24 01:17:00;;;;;;;8.50;5.78;;;;;;;15.02;80.10;96971.47;2081524;28;20040;-57
2023/06/24 01:18:08;;;;;;;7.18;5.88;;;;;;;15.03;79.14;96976.66;2099751;28;20049;-57
2023/06/24 01:19:38;;;;;;;7.95;6.00;;;;;;;14.93;79.19;96952.72;2106432;28;20043;-56
2023/06/24 01:21:08;;;;;;;8.50;6.15;;;;;;;14.94;79.75;96954.41;2105992;28;20045;-57
2023/06/24 01:22:31;;;;;;;8.02;6.25;;;;;;;15.07;79.12;96972.94;2091660;28;20565;-57
2023/06/24 01:23:50;;;;;;;8.40;5.65;;;;;;;15.04;78.99;96967.88;2102871;28;20506;-57
2023/06/24 01:24:59;;;;;;;11.43;5.88;;;;;;;15.07;79.29;96962.47;2100464;28;20036;-57
2023/06/24 01:26:09;;;;;;;9.93;6.13;;;;;;;15.07;79.52;96966.88;2098659;28;20484;-57
2023/06/24 01:27:25;;;;;;;10.57;6.18;;;;;;;15.07;79.50;96959.03;2106225;28;20047;-57
2023/06/24 01:28:59;;;;;;;8.75;5.95;;;;;;;15.08;79.98;96964.19;2105599;28;20047;-57
2023/06/24 01:30:27;;;;;;;9.23;6.30;;;;;;;15.11;80.00;96963.19;2102355;28;20044;-56
2023/06/24 01:31:48;;;;;;;9.70;6.47;;;;;;;15.06;80.00;96955.56;2101044;28;20055;-57
2023/06/24 01:32:55;;;;;;;10.45;5.93;;;;;;;14.99;80.26;96941.09;2100048;28;20043;-56
2023/06/24 01:33:59;;;;;;;7.13;5.93;;;;;;;15.09;79.63;96954.56;2105971;28;20059;-56
2023/06/24 01:35:06;;;;;;;10.00;5.97;;;;;;;14.98;79.71;96948.09;2106733;28;20048;-56
2023/06/24 01:36:08;;;;;;;9.45;6.47;;;;;;;15.10;79.91;96958.88;2097608;28;20047;-56
2023/06/24 01:37:42;;;;;;;7.60;6.28;;;;;;;15.09;80.07;96947.56;2097663;28;20048;-56
2023/06/24 01:38:48;;;;;;;8.10;5.90;;;;;;;15.01;80.03;96934.03;2085297;28;20049;-56
2023/06/24 01:39:52;;;;;;;9.85;6.45;;;;;;;15.00;80.45;96932.34;2100960;28;20055;-56
2023/06/24 01:40:53;;;;;;;7.78;6.18;;;;;;;15.06;80.57;96945.09;2105860;28;20144;-57
2023/06/24 01:42:00;;;;;;;8.85;6.30;;;;;;;15.06;80.70;96947.72;2097652;28;20044;-55
2023/06/24 01:43:01;;;;;;;9.38;6.43;;;;;;;15.07;81.06;96945.94;2097978;28;20056;-56
2023/06/24 01:44:02;;;;;;;7.60;6.28;;;;;;;15.07;81.59;96949.41;2098005;28;20040;-56
2023/06/24 01:45:06;;;;;;;7.70;6.10;;;;;;;15.04;81.41;96941.72;2088548;28;20057;-56
2023/06/24 01:46:07;;;;;;;9.60;6.43;;;;;;;15.06;81.60;96941.66;2088967;28;20060;-56
2023/06/24 01:47:08;;;;;;;10.98;7.47;;;;;;;14.97;81.47;96925.50;2088979;28;20057;-57
2023/06/24 01:48:13;;;;;;;10.80;6.55;;;;;;;15.06;81.12;96945.09;2097634;28;20036;-56
2023/06/24 01:49:14;;;;;;;8.45;6.38;;;;;;;15.04;81.50;96952.19;2089148;28;20046;-56
2023/06/24 01:50:20;;;;;;;10.35;7.20;;;;;;;14.99;81.84;96939.34;2090095;28;20159;-56
2023/06/24 01:51:21;;;;;;;8.25;6.18;;;;;;;14.92;81.46;96926.66;2096631;28;20052;-56
2023/06/24 01:52:23;;;;;;;8.32;6.28;;;;;;;15.00;81.01;96941.03;2081423;28;20060;-56
2023/06/24 01:53:24;;;;;;;9.75;7.07;;;;;;;14.87;81.22;96924.25;2096955;28;20380;-56
2023/06/24 01:54:25;;;;;;;7.63;6.40;;;;;;;14.92;81.07;96937.09;2106399;28;20417;-56
2023/06/24 01:55:26;;;;;;;9.88;6.93;;;;;;;14.89;81.57;96929.38;2097484;28;20048;-56
2023/06/24 01:56:27;;;;;;;8.07;6.22;;;;;;;14.85;82.26;96931.31;2089126;28;20389;-56
2023/06/24 01:57:29;;;;;;;9.35;7.45;;;;;;;14.94;82.07;96945.69;2080932;28;20049;-56
2023/06/24 01:58:30;;;;;;;10.18;6.90;;;;;;;14.95;82.05;96947.41;2081098;28;20060;-56
2023/06/24 01:59:31;;;;;;;10.18;7.00;;;;;;;14.88;82.02;96935.56;2089289;28;20049;-56
2023/06/24 02:00:33;;;;;;;11.30;6.63;;;;;;;14.91;82.36;96941.47;2089266;28;20090;-56
2023/06/24 02:01:35;;;;;;;8.85;6.60;;;;;;;14.88;81.87;96941.63;2073003;28;20161;-56
2023/06/24 02:02:36;;;;;;;8.55;6.93;;;;;;;14.87;81.88;96939.94;2081146;28;20056;-56
2023/06/24 02:03:37;;;;;;;8.70;6.70;;;;;;;14.86;82.01;96937.41;2080356;28;20172;-56
2023/06/24 02:04:39;;;;;;;9.85;7.18;;;;;;;14.85;82.58;96926.09;2081028;28;20111;-56
2023/06/24 02:05:40;;;;;;;8.90;6.40;;;;;;;14.86;81.82;96929.53;2096766;28;20063;-56
2023/06/24 02:06:41;;;;;;;9.18;6.57;;;;;;;14.85;81.00;96928.72;2105655;28;20052;-55
2023/06/24 02:07:42;;;;;;;13.13;6.75;;;;;;;14.83;81.35;96937.53;2096950;28;20060;-56
2023/06/24 02:08:43;;;;;;;9.35;6.22;;;;;;;14.74;80.95;96913.56;2089412;28;20437;-56
2023/06/24 02:09:44;;;;;;;7.30;5.88;;;;;;;14.83;80.36;96937.53;2105709;28;20043;-56
2023/06/24 02:10:45;;;;;;;8.98;6.15;;;;;;;14.86;80.77;96937.41;2106195;28;20074;-56
2023/06/24 02:11:48;;;;;;;7.80;5.43;;;;;;;14.89;80.75;96937.22;2097452;28;20051;-56
2023/06/24 02:12:50;;;;;;;8.65;6.05;;;;;;;14.76;80.13;96919.56;2080990;28;20049;-56
2023/06/24 02:13:51;;;;;;;6.95;5.40;;;;;;;14.83;80.24;96938.38;2089579;28;20061;-56
2023/06/24 02:14:52;;;;;;;7.03;5.57;;;;;;;14.72;79.86;96925.84;2089062;28;20464;-56
2023/06/24 02:15:54;;;;;;;7.55;5.28;;;;;;;14.80;79.35;96929.84;2097572;28;20043;-56
2023/06/24 02:16:57;;;;;;;6.55;4.82;;;;;;;14.71;78.94;96913.69;2097197;28;20052;-56
2023/06/24 02:17:58;;;;;;;8.18;5.57;;;;;;;14.77;79.18;96930.84;2098018;28;20037;-56
2023/06/24 02:18:59;;;;;;;6.95;5.43;;;;;;;14.80;78.95;96935.09;2097219;28;20040;-57
2023/06/24 02:20:00;;;;;;;7.28;5.43;;;;;;;14.77;78.55;96930.84;2080950;28;20049;-57
2023/06/24 02:21:02;;;;;;;6.20;4.45;;;;;;;14.83;77.47;96930.53;2088475;28;20057;-56
2023/06/24 02:22:04;;;;;;;7.55;5.57;;;;;;;14.81;77.35;96935.03;2089169;28;20052;-56
2023/06/24 02:23:07;;;;;;;9.55;5.18;;;;;;;14.84;77.30;96934.03;2081540;28;20513;-56
2023/06/24 02:24:09;;;;;;;7.60;5.40;;;;;;;14.83;77.94;96934.94;2097948;28;20067;-56
2023/06/24 02:25:10;;;;;;;7.80;5.03;;;;;;;14.84;77.98;96934.03;2096442;28;20079;-56
2023/06/24 02:26:11;;;;;;;7.65;5.38;;;;;;;14.83;77.55;96933.16;2089227;28;20052;-57
2023/06/24 02:27:12;;;;;;;7.13;5.20;;;;;;;14.77;77.91;96929.06;2097393;28;20088;-56
2023/06/24 02:28:13;;;;;;;6.60;5.25;;;;;;;14.83;78.01;96937.53;2105662;28;20142;-56
2023/06/24 02:29:14;;;;;;;7.70;5.18;;;;;;;14.82;78.17;96920.19;2088363;28;20044;-56
2023/06/24 02:30:15;;;;;;;7.07;4.88;;;;;;;14.82;78.31;96928.03;2081079;28;20049;-56
2023/06/24 02:31:16;;;;;;;5.75;4.70;;;;;;;14.82;78.51;96923.63;2097297;28;20037;-57
2023/06/24 02:32:18;;;;;;;8.95;6.13;;;;;;;14.80;78.17;96929.84;2105558;28;20073;-56
2023/06/24 02:33:19;;;;;;;9.65;5.32;;;;;;;14.82;78.65;96930.63;2096790;28;20059;-56
2023/06/24 02:34:23;;;;;;;8.02;5.55;;;;;;;14.74;77.51;96913.56;2088988;28;20045;-56
2023/06/24 02:35:24;;;;;;;7.97;6.05;;;;;;;14.85;78.01;96922.63;2089412;28;20057;-56
2023/06/24 02:36:25;;;;;;;9.10;5.07;;;;;;;14.87;77.91;96928.66;2089084;28;20045;-56
2023/06/24 02:37:26;;;;;;;7.55;5.60;;;;;;;14.86;78.20;96927.81;2097209;28;20044;-56
2023/06/24 02:38:27;;;;;;;6.80;5.18;;;;;;;14.89;78.24;96926.78;2097193;28;20053;-56
2023/06/24 02:39:28;;;;;;;9.45;5.38;;;;;;;14.81;77.89;96918.47;2080242;28;20054;-56
2023/06/24 02:40:29;;;;;;;8.35;5.78;;;;;;;14.93;77.90;96929.16;2088276;28;20504;-56
2023/06/24 02:41:31;;;;;;;7.95;6.15;;;;;;;14.94;78.16;96933.50;2088387;28;20057;-56
2023/06/24 02:42:32;;;;;;;6.97;5.72;;;;;;;14.94;77.91;96922.16;2096478;28;20052;-57
2023/06/24 02:43:35;;;;;;;7.95;5.50;;;;;;;14.92;77.82;96921.41;2105785;28;20114;-56
2023/06/24 02:44:38;;;;;;;7.32;5.53;;;;;;;14.96;77.93;96926.41;2105993;28;20044;-57
2023/06/24 02:45:39;;;;;;;11.00;5.55;;;;;;;14.98;77.70;96929.78;2096336;28;20056;-56
2023/06/24 02:46:40;;;;;;;7.15;5.50;;;;;;;14.97;78.55;96935.13;2089038;28;20075;-56
2023/06/24 02:47:41;;;;;;;8.05;5.30;;;;;;;14.98;78.74;96936.78;2097441;28;20048;-57
2023/06/24 02:48:42;;;;;;;8.05;5.80;;;;;;;14.94;78.67;96930.00;2105196;28;20126;-56
2023/06/24 02:49:46;;;;;;;8.80;6.18;;;;;;;14.91;78.40;96917.09;2105626;28;20047;-56
2023/06/24 02:50:47;;;;;;;8.20;5.60;;;;;;;15.00;78.91;96929.72;2080597;28;20072;-56
2023/06/24 02:51:48;;;;;;;6.95;4.90;;;;;;;14.99;78.24;96941.09;2081156;28;20045;-56
2023/06/24 02:52:49;;;;;;;7.68;5.40;;;;;;;14.94;78.61;96932.63;2097175;28;20052;-56
2023/06/24 02:53:53;;;;;;;9.70;5.97;;;;;;;14.93;78.89;96942.25;2088353;28;20420;-56
2023/06/24 02:55:01;;;;;;;9.80;6.60;;;;;;;14.97;78.64;96937.72;2091012;28;20496;-56
2023/06/24 02:56:25;;;;;;;10.75;5.93;;;;;;;14.97;78.94;96943.81;2105208;28;20395;-56
2023/06/24 02:57:26;;;;;;;7.40;6.15;;;;;;;14.93;79.07;96944.03;2088251;28;20053;-56
2023/06/24 02:59:02;;;;;;;8.85;5.93;;;;;;;14.90;79.24;96945.03;2068921;28;20049;-56
2023/06/24 03:00:11;;;;;;;7.13;5.72;;;;;;;14.91;78.72;96943.25;2064080;28;20046;-56
2023/06/24 03:01:38;;;;;;;8.23;6.18;;;;;;;14.89;78.87;96948.56;2089470;28;20063;-56
2023/06/24 03:02:39;;;;;;;9.13;6.32;;;;;;;14.90;78.89;96952.03;2097114;28;20052;-56
2023/06/24 03:03:41;;;;;;;8.93;6.18;;;;;;;14.88;79.13;96953.88;2081727;28;20045;-56
2023/06/24 03:04:46;;;;;;;9.02;6.22;;;;;;;14.92;79.02;96950.19;2089215;28;20415;-56
2023/06/24 03:05:50;;;;;;;8.32;6.30;;;;;;;14.90;79.10;96949.41;2082355;28;20061;-57
2023/06/24 03:06:52;;;;;;;13.23;6.55;;;;;;;14.81;79.03;96942.00;2082621;28;20444;-56
2023/06/24 03:07:54;;;;;;;8.30;6.32;;;;;;;14.88;79.67;96953.88;2075348;28;20053;-57
2023/06/24 03:08:57;;;;;;;9.23;6.78;;;;;;;14.86;79.78;96953.97;2081969;28;20053;-56
2023/06/24 03:09:58;;;;;;;9.57;6.75;;;;;;;14.86;80.33;96958.31;2090599;28;20048;-56
2023/06/24 03:11:00;;;;;;;9.07;7.07;;;;;;;14.89;79.81;96955.53;2090260;28;20481;-56
2023/06/24 03:12:05;;;;;;;9.32;6.88;;;;;;;14.88;79.83;96956.47;2099284;28;20059;-56
2023/06/24 03:13:14;;;;;;;9.57;7.47;;;;;;;14.89;79.84;96956.41;2107070;28;20059;-56
2023/06/24 03:14:19;;;;;;;9.40;7.05;;;;;;;14.89;79.71;96953.78;2099217;28;20507;-56
2023/06/24 03:15:20;;;;;;;10.38;7.70;;;;;;;14.90;80.13;96960.72;2098525;28;20040;-56
2023/06/24 03:16:21;;;;;;;12.35;7.40;;;;;;;14.81;80.28;96952.47;2106377;28;20052;-56
2023/06/24 03:17:45;;;;;;;11.52;7.47;;;;;;;14.88;80.02;96966.94;2100718;28;20043;-56
2023/06/24 03:18:46;;;;;;;9.20;7.47;;;;;;;14.89;80.00;96963.38;2106398;28;20055;-56
2023/06/24 03:19:47;;;;;;;8.68;7.15;;;;;;;14.88;80.73;96959.09;2107168;28;20047;-56
2023/06/24 03:20:48;;;;;;;9.27;7.57;;;;;;;14.89;80.73;96963.38;2098395;28;20056;-56
2023/06/24 03:21:53;;;;;;;8.80;7.55;;;;;;;14.89;80.28;96958.16;2099138;28;20515;-56
2023/06/24 03:22:56;;;;;;;10.23;7.55;;;;;;;14.88;80.55;96965.16;2097794;28;20091;-56
2023/06/24 03:23:58;;;;;;;11.50;8.20;;;;;;;14.78;80.50;96951.72;2098573;28;20456;-56
2023/06/24 03:25:00;;;;;;;11.20;8.60;;;;;;;14.87;80.70;96966.09;2098252;28;20376;-56
2023/06/24 03:26:02;;;;;;;11.38;8.07;;;;;;;14.78;80.39;96954.31;2098485;28;20044;-56
2023/06/24 03:27:04;;;;;;;9.48;7.80;;;;;;;14.77;80.91;96949.16;2098607;28;20051;-56
2023/06/24 03:28:12;;;;;;;10.77;8.48;;;;;;;14.86;80.66;96968.78;2099138;28;20049;-56
2023/06/24 03:29:19;;;;;;;11.77;8.10;;;;;;;14.86;80.81;96968.78;2099453;28;20045;-56
2023/06/24 03:30:33;;;;;;;10.40;7.93;;;;;;;14.89;80.69;96968.63;2100171;28;20040;-56
2023/06/24 03:31:34;;;;;;;9.65;7.13;;;;;;;14.87;79.88;96967.88;2097671;28;20456;-56
2023/06/24 03:32:36;;;;;;;10.05;7.80;;;;;;;14.85;80.72;96969.72;2090420;28;20048;-56
2023/06/24 03:33:37;;;;;;;10.13;7.53;;;;;;;14.77;80.71;96959.63;2098458;28;20044;-56
2023/06/24 03:34:40;;;;;;;9.98;7.80;;;;;;;14.89;80.63;96976.47;2098747;28;20119;-56
2023/06/24 03:35:43;;;;;;;9.45;7.47;;;;;;;14.91;80.40;96964.16;2105920;28;20059;-56
2023/06/24 03:36:47;;;;;;;9.80;8.18;;;;;;;14.91;80.23;96972.84;2106846;28;20446;-56
2023/06/24 03:37:50;;;;;;;10.57;7.63;;;;;;;14.88;80.37;96966.94;2098604;28;20049;-56
2023/06/24 03:38:51;;;;;;;11.82;8.48;;;;;;;14.80;79.39;96953.38;2098812;28;20048;-56
2023/06/24 03:39:52;;;;;;;11.05;7.80;;;;;;;14.88;80.26;96972.16;2105866;28;20048;-56
2023/06/24 03:40:54;;;;;;;10.80;7.40;;;;;;;14.86;79.93;96974.88;2098141;28;20052;-56
2023/06/24 03:41:55;;;;;;;11.27;7.78;;;;;;;14.87;79.65;96973.09;2098391;28;20428;-56
2023/06/24 03:42:57;;;;;;;9.25;7.60;;;;;;;14.88;79.12;96977.41;2106770;28;20055;-56
2023/06/24 03:43:58;;;;;;;10.90;7.63;;;;;;;14.87;78.96;96979.16;2106913;28;20051;-56
2023/06/24 03:44:59;;;;;;;10.60;7.90;;;;;;;14.88;79.58;96977.41;2097383;28;20052;-56
2023/06/24 03:46:00;;;;;;;10.35;7.60;;;;;;;14.88;79.48;96978.25;2098383;28;20036;-56
2023/06/24 03:47:02;;;;;;;11.40;7.78;;;;;;;14.92;79.44;96982.41;2106770;28;20174;-56
2023/06/24 03:48:03;;;;;;;10.48;7.72;;;;;;;14.91;79.23;96983.31;2106753;28;20503;-56
2023/06/24 03:49:06;;;;;;;10.18;7.75;;;;;;;14.89;79.67;96976.47;2098318;28;20040;-56
2023/06/24 03:50:07;;;;;;;9.98;7.13;;;;;;;14.89;79.73;96979.94;2098435;28;20040;-56
2023/06/24 03:51:08;;;;;;;9.63;7.35;;;;;;;14.89;79.70;96979.06;2106854;28;20044;-56
2023/06/24 03:52:11;;;;;;;10.43;7.53;;;;;;;14.92;79.87;96986.81;2106654;28;20059;-56
2023/06/24 03:53:12;;;;;;;12.43;7.90;;;;;;;14.94;79.12;96987.53;2098345;28;20044;-56
2023/06/24 03:54:15;;;;;;;9.27;7.50;;;;;;;14.94;80.01;96988.41;2098607;28;20044;-56
2023/06/24 03:55:16;;;;;;;11.07;8.00;;;;;;;14.95;79.84;96984.03;2097618;28;20060;-56
2023/06/24 03:56:17;;;;;;;10.82;7.72;;;;;;;14.95;80.06;96989.25;2097917;28;20048;-56
2023/06/24 03:57:18;;;;;;;11.95;7.28;;;;;;;14.93;79.94;96994.56;2105916;28;20143;-56
2023/06/24 03:58:20;;;;;;;10.40;7.82;;;;;;;14.92;80.60;96992.03;2106596;28;20494;-56
2023/06/24 03:59:22;;;;;;;9.77;7.57;;;;;;;14.93;80.38;96988.47;2098400;28;20054;-56
2023/06/24 04:00:23;;;;;;;10.75;7.50;;;;;;;14.91;79.74;96992.94;2098451;28;20127;-56
2023/06/24 04:01:25;;;;;;;9.52;7.57;;;;;;;14.88;79.84;96990.47;2097888;28;20135;-56
2023/06/24 04:02:29;;;;;;;14.45;6.95;;;;;;;14.86;79.70;96990.56;2106709;28;20044;-56
2023/06/24 04:03:31;;;;;;;12.25;7.60;;;;;;;14.87;79.26;96996.63;2105960;28;20051;-57
2023/06/24 04:04:35;;;;;;;8.82;7.15;;;;;;;14.85;79.70;96993.25;2098640;28;20099;-56
2023/06/24 04:05:38;;;;;;;10.73;7.30;;;;;;;14.80;79.53;96995.22;2098787;28;20060;-56
2023/06/24 04:06:39;;;;;;;9.15;6.93;;;;;;;14.77;80.15;96991.84;2106397;28;20052;-56
2023/06/24 04:07:41;;;;;;;9.88;7.03;;;;;;;14.67;79.75;96987.97;2107111;28;20040;-56
2023/06/24 04:08:43;;;;;;;8.15;6.40;;;;;;;14.72;79.60;96991.19;2106870;28;20060;-56
2023/06/24 04:09:44;;;;;;;10.43;6.50;;;;;;;14.69;78.95;96988.75;2106017;28;20059;-56
2023/06/24 04:10:45;;;;;;;9.13;6.50;;;;;;;14.68;79.13;96992.28;2106747;28;20047;-56
2023/06/24 04:11:46;;;;;;;8.90;6.00;;;;;;;14.65;78.42;96991.56;2097586;28;20048;-56
2023/06/24 04:12:48;;;;;;;9.10;6.10;;;;;;;14.63;79.12;96993.44;2106223;28;20534;-56
2023/06/24 04:13:49;;;;;;;7.88;5.65;;;;;;;14.53;78.48;96974.72;2106449;28;20662;-56
2023/06/24 04:14:51;;;;;;;8.38;5.70;;;;;;;14.62;78.45;96991.72;2097312;28;20059;-56
2023/06/24 04:15:52;;;;;;;7.68;5.13;;;;;;;14.51;78.45;96976.50;2097879;28;20067;-56
2023/06/24 04:16:53;;;;;;;7.20;5.30;;;;;;;14.58;78.79;96996.25;2106299;28;20040;-56
2023/06/24 04:17:54;;;;;;;8.48;5.97;;;;;;;14.56;78.24;96996.31;2098209;28;20396;-56
2023/06/24 04:18:55;;;;;;;9.00;5.97;;;;;;;14.52;78.70;96992.16;2106749;28;20059;-56
2023/06/24 04:19:57;;;;;;;6.75;5.45;;;;;;;14.53;78.13;97004.31;2106289;28;20047;-56
2023/06/24 04:20:59;;;;;;;8.90;6.05;;;;;;;14.50;79.27;97000.97;2098270;28;20051;-56
2023/06/24 04:22:00;;;;;;;7.32;5.47;;;;;;;14.47;79.15;96996.72;2098017;28;20056;-56
2023/06/24 04:23:01;;;;;;;10.35;6.15;;;;;;;14.44;79.17;96990.81;2105814;28;20063;-56
2023/06/24 04:24:04;;;;;;;10.27;5.95;;;;;;;14.46;79.34;97002.00;2106750;28;20392;-56
2023/06/24 04:25:06;;;;;;;8.23;6.22;;;;;;;14.44;79.08;97006.47;2098044;28;20045;-56
2023/06/24 04:26:07;;;;;;;7.30;5.78;;;;;;;14.41;79.49;96991.78;2098127;28;20050;-56
2023/06/24 04:27:08;;;;;;;9.38;6.35;;;;;;;14.39;79.19;97003.22;2106400;28;20074;-56
2023/06/24 04:28:10;;;;;;;8.77;6.32;;;;;;;14.38;79.05;96998.91;2097986;28;20056;-56
2023/06/24 04:29:11;;;;;;;8.35;6.05;;;;;;;14.36;79.51;97000.78;2089275;28;20059;-56
2023/06/24 04:30:13;;;;;;;9.82;6.78;;;;;;;14.35;79.58;96999.91;2097464;28;20052;-56
2023/06/24 04:31:15;;;;;;;7.90;6.18;;;;;;;14.31;79.70;96991.38;2105999;28;20075;-56
2023/06/24 04:32:16;;;;;;;8.05;6.07;;;;;;;14.34;79.87;97001.66;2097978;28;20399;-56
2023/06/24 04:33:17;;;;;;;9.80;6.45;;;;;;;14.27;79.59;96986.34;2106480;28;20044;-56
2023/06/24 04:34:19;;;;;;;7.53;5.78;;;;;;;14.34;80.18;97006.06;2105644;28;20466;-56
2023/06/24 04:35:20;;;;;;;7.88;5.78;;;;;;;14.31;80.44;97001.81;2097774;28;20053;-56
2023/06/24 04:36:21;;;;;;;8.38;6.07;;;;;;;14.21;80.39;96994.47;2097911;28;20051;-56
2023/06/24 04:37:23;;;;;;;9.75;5.93;;;;;;;14.29;80.47;97008.88;2105529;28;20047;-56
2023/06/24 04:38:27;;;;;;;8.32;5.90;;;;;;;14.27;80.16;97007.25;2097899;28;20527;-56
2023/06/24 04:39:28;;;;;;;8.25;6.13;;;;;;;14.24;80.82;97003.00;2097486;28;20048;-56
2023/06/24 04:40:30;;;;;;;10.20;6.00;;;;;;;14.24;81.01;97000.38;2105858;28;20060;-56
2023/06/24 04:41:32;;;;;;;8.43;6.15;;;;;;;14.23;81.05;97009.16;2106983;28;20040;-55
2023/06/24 04:42:33;;;;;;;7.10;5.75;;;;;;;14.18;80.29;97002.44;2106900;28;20395;-55
2023/06/24 04:43:35;;;;;;;8.68;6.30;;;;;;;14.24;80.72;97000.38;2105760;28;20056;-55
2023/06/24 04:44:36;;;;;;;8.80;6.18;;;;;;;14.22;80.94;97017.06;2105730;28;20056;-55
2023/06/24 04:45:37;;;;;;;9.15;6.00;;;;;;;14.19;80.61;97011.97;2107032;28;20067;-56
2023/06/24 04:46:39;;;;;;;9.32;6.28;;;;;;;14.16;81.59;97009.50;2106694;28;20059;-55
2023/06/24 04:47:41;;;;;;;8.35;6.35;;;;;;;14.08;81.18;97002.84;2106829;28;20044;-56
2023/06/24 04:48:42;;;;;;;7.93;6.28;;;;;;;14.03;81.35;96998.75;2106506;28;20048;-55
2023/06/24 04:49:43;;;;;;;7.97;6.60;;;;;;;14.12;81.32;97012.25;2106825;28;20048;-55
2023/06/24 04:50:44;;;;;;;10.15;5.88;;;;;;;14.12;81.42;97003.59;2106793;28;20039;-55
2023/06/24 04:51:45;;;;;;;12.07;6.47;;;;;;;14.11;81.58;97010.56;2106801;28;20035;-55
2023/06/24 04:52:53;;;;;;;8.65;6.63;;;;;;;14.04;81.99;96998.69;2106812;28;20046;-55
2023/06/24 04:53:55;;;;;;;9.55;6.43;;;;;;;14.15;81.85;97007.81;2106940;28;20048;-55
2023/06/24 04:54:56;;;;;;;8.98;5.93;;;;;;;14.12;81.58;97008.81;2106841;28;20106;-56
2023/06/24 04:55:57;;;;;;;8.73;6.78;;;;;;;14.11;82.04;97010.56;2106478;28;20048;-55
2023/06/24 04:56:58;;;;;;;10.18;6.78;;;;;;;14.12;81.83;97011.41;2106518;28;20051;-55